sensor_id;sensor_type;location;lat;lon;timestamp;P1;durP1;ratioP1;P2;durP2;ratioP2
83541;SDS011;73485;49.194;12.104;2024-03-06T00:00:41;14.02;;;6.93;;
83541;SDS011;73485;49.194;12.104;2024-03-06T00:03:09;15.60;;;6.82;;
83541;SDS011;73485;49.194;12.104;2024-03-06T00:05:36;16.35;;;6.57;;
83541;SDS011;73485;49.194;12.104;2024-03-06T00:08:06;13.63;;;6.10;;
83541;SDS011;73485;49.194;12.104;2024-03-06T00:10:34;17.67;;;7.28;;
83541;SDS011;73485;49.194;12.104;2024-03-06T00:13:02;20.80;;;9.10;;
83541;SDS011;73485;49.194;12.104;2024-03-06T00:15:30;24.15;;;8.95;;
83541;SDS011;73485;49.194;12.104;2024-03-06T00:17:59;20.45;;;9.77;;
83541;SDS011;73485;49.194;12.104;2024-03-06T00:20:27;20.25;;;7.88;;
83541;SDS011;73485;49.194;12.104;2024-03-06T00:22:55;14.52;;;7.18;;
83541;SDS011;73485;49.194;12.104;2024-03-06T00:25:26;14.23;;;7.55;;
83541;SDS011;73485;49.194;12.104;2024-03-06T00:27:54;15.40;;;7.13;;
83541;SDS011;73485;49.194;12.104;2024-03-06T00:30:22;15.65;;;8.23;;
83541;SDS011;73485;49.194;12.104;2024-03-06T00:32:49;13.60;;;6.88;;
83541;SDS011;73485;49.194;12.104;2024-03-06T00:35:17;18.45;;;7.95;;
83541;SDS011;73485;49.194;12.104;2024-03-06T00:37:45;23.05;;;9.00;;
83541;SDS011;73485;49.194;12.104;2024-03-06T00:40:13;15.13;;;7.15;;
83541;SDS011;73485;49.194;12.104;2024-03-06T00:42:42;18.73;;;8.32;;
83541;SDS011;73485;49.194;12.104;2024-03-06T00:45:10;19.85;;;7.53;;
83541;SDS011;73485;49.194;12.104;2024-03-06T00:47:37;21.92;;;9.68;;
83541;SDS011;73485;49.194;12.104;2024-03-06T00:50:05;15.93;;;7.43;;
83541;SDS011;73485;49.194;12.104;2024-03-06T00:52:34;15.70;;;7.47;;
83541;SDS011;73485;49.194;12.104;2024-03-06T00:55:01;14.52;;;6.95;;
83541;SDS011;73485;49.194;12.104;2024-03-06T00:57:29;19.40;;;7.30;;
83541;SDS011;73485;49.194;12.104;2024-03-06T00:59:58;16.42;;;7.18;;
83541;SDS011;73485;49.194;12.104;2024-03-06T01:02:26;14.77;;;6.40;;
83541;SDS011;73485;49.194;12.104;2024-03-06T01:04:54;14.98;;;7.97;;
83541;SDS011;73485;49.194;12.104;2024-03-06T01:07:21;16.38;;;7.10;;
83541;SDS011;73485;49.194;12.104;2024-03-06T01:09:49;13.98;;;7.00;;
83541;SDS011;73485;49.194;12.104;2024-03-06T01:12:17;19.63;;;7.47;;
83541;SDS011;73485;49.194;12.104;2024-03-06T01:14:45;15.82;;;7.38;;
83541;SDS011;73485;49.194;12.104;2024-03-06T01:17:14;15.30;;;6.90;;
83541;SDS011;73485;49.194;12.104;2024-03-06T01:19:42;15.57;;;7.07;;
83541;SDS011;73485;49.194;12.104;2024-03-06T01:22:10;17.13;;;6.72;;
83541;SDS011;73485;49.194;12.104;2024-03-06T01:24:38;15.07;;;6.60;;
83541;SDS011;73485;49.194;12.104;2024-03-06T01:27:06;18.40;;;7.60;;
83541;SDS011;73485;49.194;12.104;2024-03-06T01:29:33;14.40;;;6.43;;
83541;SDS011;73485;49.194;12.104;2024-03-06T01:32:01;15.25;;;6.82;;
83541;SDS011;73485;49.194;12.104;2024-03-06T01:34:31;13.00;;;7.20;;
83541;SDS011;73485;49.194;12.104;2024-03-06T01:36:59;13.43;;;6.82;;
83541;SDS011;73485;49.194;12.104;2024-03-06T01:39:26;13.45;;;6.03;;
83541;SDS011;73485;49.194;12.104;2024-03-06T01:41:54;16.77;;;6.60;;
83541;SDS011;73485;49.194;12.104;2024-03-06T01:44:22;15.65;;;6.68;;
83541;SDS011;73485;49.194;12.104;2024-03-06T01:46:49;13.70;;;7.95;;
83541;SDS011;73485;49.194;12.104;2024-03-06T01:49:17;14.15;;;8.10;;
83541;SDS011;73485;49.194;12.104;2024-03-06T01:51:59;12.95;;;5.65;;
83541;SDS011;73485;49.194;12.104;2024-03-06T01:54:28;16.92;;;6.32;;
83541;SDS011;73485;49.194;12.104;2024-03-06T01:56:57;14.23;;;6.13;;
83541;SDS011;73485;49.194;12.104;2024-03-06T01:59:26;11.93;;;5.97;;
83541;SDS011;73485;49.194;12.104;2024-03-06T02:02:02;16.73;;;8.27;;
83541;SDS011;73485;49.194;12.104;2024-03-06T02:04:31;13.63;;;7.05;;
83541;SDS011;73485;49.194;12.104;2024-03-06T02:07:00;15.82;;;7.68;;
83541;SDS011;73485;49.194;12.104;2024-03-06T02:09:28;17.30;;;7.22;;
83541;SDS011;73485;49.194;12.104;2024-03-06T02:11:56;15.85;;;7.93;;
83541;SDS011;73485;49.194;12.104;2024-03-06T02:14:24;17.75;;;8.20;;
83541;SDS011;73485;49.194;12.104;2024-03-06T02:16:52;17.67;;;7.43;;
83541;SDS011;73485;49.194;12.104;2024-03-06T02:19:20;14.43;;;7.15;;
83541;SDS011;73485;49.194;12.104;2024-03-06T02:21:50;17.50;;;7.25;;
83541;SDS011;73485;49.194;12.104;2024-03-06T02:24:17;15.07;;;7.47;;
83541;SDS011;73485;49.194;12.104;2024-03-06T02:26:45;17.38;;;7.57;;
83541;SDS011;73485;49.194;12.104;2024-03-06T02:29:13;16.08;;;8.10;;
83541;SDS011;73485;49.194;12.104;2024-03-06T02:31:41;14.95;;;7.88;;
83541;SDS011;73485;49.194;12.104;2024-03-06T02:34:09;14.35;;;7.10;;
83541;SDS011;73485;49.194;12.104;2024-03-06T02:36:36;19.23;;;7.35;;
83541;SDS011;73485;49.194;12.104;2024-03-06T02:39:05;17.88;;;7.60;;
83541;SDS011;73485;49.194;12.104;2024-03-06T02:41:35;14.98;;;6.18;;
83541;SDS011;73485;49.194;12.104;2024-03-06T02:44:03;14.15;;;8.25;;
83541;SDS011;73485;49.194;12.104;2024-03-06T02:46:31;16.90;;;6.68;;
83541;SDS011;73485;49.194;12.104;2024-03-06T02:49:00;13.43;;;6.38;;
83541;SDS011;73485;49.194;12.104;2024-03-06T02:51:27;15.30;;;7.43;;
83541;SDS011;73485;49.194;12.104;2024-03-06T02:53:55;22.40;;;8.60;;
83541;SDS011;73485;49.194;12.104;2024-03-06T02:56:24;15.82;;;8.18;;
83541;SDS011;73485;49.194;12.104;2024-03-06T02:58:52;16.52;;;8.40;;
83541;SDS011;73485;49.194;12.104;2024-03-06T03:01:21;14.50;;;7.65;;
83541;SDS011;73485;49.194;12.104;2024-03-06T03:03:49;14.68;;;8.10;;
83541;SDS011;73485;49.194;12.104;2024-03-06T03:06:17;19.48;;;8.32;;
83541;SDS011;73485;49.194;12.104;2024-03-06T03:08:45;14.93;;;6.90;;
83541;SDS011;73485;49.194;12.104;2024-03-06T03:11:13;15.55;;;7.18;;
83541;SDS011;73485;49.194;12.104;2024-03-06T03:13:43;16.05;;;7.10;;
83541;SDS011;73485;49.194;12.104;2024-03-06T03:16:15;13.77;;;6.97;;
83541;SDS011;73485;49.194;12.104;2024-03-06T03:18:44;14.25;;;8.15;;
83541;SDS011;73485;49.194;12.104;2024-03-06T03:21:11;13.98;;;6.45;;
83541;SDS011;73485;49.194;12.104;2024-03-06T03:23:39;15.43;;;6.97;;
83541;SDS011;73485;49.194;12.104;2024-03-06T03:26:07;15.07;;;7.60;;
83541;SDS011;73485;49.194;12.104;2024-03-06T03:31:07;16.83;;;7.45;;
83541;SDS011;73485;49.194;12.104;2024-03-06T03:36:04;17.52;;;8.98;;
83541;SDS011;73485;49.194;12.104;2024-03-06T03:38:33;16.73;;;8.15;;
83541;SDS011;73485;49.194;12.104;2024-03-06T03:41:06;15.93;;;7.03;;
83541;SDS011;73485;49.194;12.104;2024-03-06T03:43:35;18.15;;;8.68;;
83541;SDS011;73485;49.194;12.104;2024-03-06T03:46:02;17.50;;;7.65;;
83541;SDS011;73485;49.194;12.104;2024-03-06T03:48:34;19.27;;;9.75;;
83541;SDS011;73485;49.194;12.104;2024-03-06T03:51:04;19.98;;;7.55;;
83541;SDS011;73485;49.194;12.104;2024-03-06T03:53:33;17.00;;;6.68;;
83541;SDS011;73485;49.194;12.104;2024-03-06T03:56:01;16.75;;;6.93;;
83541;SDS011;73485;49.194;12.104;2024-03-06T03:58:30;17.05;;;7.00;;
83541;SDS011;73485;49.194;12.104;2024-03-06T04:00:57;18.42;;;7.28;;
83541;SDS011;73485;49.194;12.104;2024-03-06T04:03:26;17.55;;;8.00;;
83541;SDS011;73485;49.194;12.104;2024-03-06T04:05:55;18.48;;;7.75;;
83541;SDS011;73485;49.194;12.104;2024-03-06T04:08:22;17.25;;;7.60;;
83541;SDS011;73485;49.194;12.104;2024-03-06T04:10:50;19.48;;;8.43;;
83541;SDS011;73485;49.194;12.104;2024-03-06T04:13:18;14.98;;;7.75;;
83541;SDS011;73485;49.194;12.104;2024-03-06T04:15:46;20.20;;;9.43;;
83541;SDS011;73485;49.194;12.104;2024-03-06T04:18:14;20.00;;;7.78;;
83541;SDS011;73485;49.194;12.104;2024-03-06T04:20:42;20.50;;;8.55;;
83541;SDS011;73485;49.194;12.104;2024-03-06T04:23:11;21.00;;;8.02;;
83541;SDS011;73485;49.194;12.104;2024-03-06T04:25:39;18.35;;;8.32;;
83541;SDS011;73485;49.194;12.104;2024-03-06T04:28:07;21.60;;;10.38;;
83541;SDS011;73485;49.194;12.104;2024-03-06T04:30:35;22.42;;;8.35;;
83541;SDS011;73485;49.194;12.104;2024-03-06T04:33:02;22.02;;;8.40;;
83541;SDS011;73485;49.194;12.104;2024-03-06T04:35:30;18.85;;;7.78;;
83541;SDS011;73485;49.194;12.104;2024-03-06T04:37:58;23.13;;;8.57;;
83541;SDS011;73485;49.194;12.104;2024-03-06T04:40:29;19.50;;;7.90;;
83541;SDS011;73485;49.194;12.104;2024-03-06T04:42:57;21.55;;;9.13;;
83541;SDS011;73485;49.194;12.104;2024-03-06T04:45:26;22.95;;;9.13;;
83541;SDS011;73485;49.194;12.104;2024-03-06T04:47:54;26.60;;;10.60;;
83541;SDS011;73485;49.194;12.104;2024-03-06T04:50:22;21.83;;;9.38;;
83541;SDS011;73485;49.194;12.104;2024-03-06T04:52:50;19.42;;;8.98;;
83541;SDS011;73485;49.194;12.104;2024-03-06T04:55:18;24.50;;;9.65;;
83541;SDS011;73485;49.194;12.104;2024-03-06T04:57:52;26.23;;;11.60;;
83541;SDS011;73485;49.194;12.104;2024-03-06T05:00:20;23.38;;;9.63;;
83541;SDS011;73485;49.194;12.104;2024-03-06T05:02:48;26.30;;;9.60;;
83541;SDS011;73485;49.194;12.104;2024-03-06T05:05:34;27.13;;;10.88;;
83541;SDS011;73485;49.194;12.104;2024-03-06T05:08:20;24.20;;;11.18;;
83541;SDS011;73485;49.194;12.104;2024-03-06T05:11:05;19.40;;;8.32;;
83541;SDS011;73485;49.194;12.104;2024-03-06T05:13:52;23.83;;;10.15;;
83541;SDS011;73485;49.194;12.104;2024-03-06T05:16:38;26.38;;;12.25;;
83541;SDS011;73485;49.194;12.104;2024-03-06T05:19:23;19.75;;;9.15;;
83541;SDS011;73485;49.194;12.104;2024-03-06T05:22:13;19.73;;;8.35;;
83541;SDS011;73485;49.194;12.104;2024-03-06T05:24:59;26.77;;;9.50;;
83541;SDS011;73485;49.194;12.104;2024-03-06T05:27:44;22.95;;;8.80;;
83541;SDS011;73485;49.194;12.104;2024-03-06T05:30:31;20.77;;;9.75;;
83541;SDS011;73485;49.194;12.104;2024-03-06T05:33:16;24.95;;;10.85;;
83541;SDS011;73485;49.194;12.104;2024-03-06T05:36:01;20.80;;;8.65;;
83541;SDS011;73485;49.194;12.104;2024-03-06T05:38:47;25.20;;;9.80;;
83541;SDS011;73485;49.194;12.104;2024-03-06T05:41:33;23.63;;;10.18;;
83541;SDS011;73485;49.194;12.104;2024-03-06T05:44:18;25.00;;;8.90;;
83541;SDS011;73485;49.194;12.104;2024-03-06T05:47:05;29.40;;;10.02;;
83541;SDS011;73485;49.194;12.104;2024-03-06T05:49:50;23.05;;;10.98;;
83541;SDS011;73485;49.194;12.104;2024-03-06T05:52:36;25.02;;;9.95;;
83541;SDS011;73485;49.194;12.104;2024-03-06T05:55:21;23.30;;;8.75;;
83541;SDS011;73485;49.194;12.104;2024-03-06T05:58:06;22.60;;;9.30;;
83541;SDS011;73485;49.194;12.104;2024-03-06T06:00:34;23.70;;;8.90;;
83541;SDS011;73485;49.194;12.104;2024-03-06T06:03:03;21.63;;;10.52;;
83541;SDS011;73485;49.194;12.104;2024-03-06T06:05:31;21.05;;;9.80;;
83541;SDS011;73485;49.194;12.104;2024-03-06T06:07:59;30.52;;;10.38;;
83541;SDS011;73485;49.194;12.104;2024-03-06T06:10:27;29.27;;;11.40;;
83541;SDS011;73485;49.194;12.104;2024-03-06T06:12:55;24.25;;;10.00;;
83541;SDS011;73485;49.194;12.104;2024-03-06T06:15:23;26.92;;;9.98;;
83541;SDS011;73485;49.194;12.104;2024-03-06T06:17:50;26.15;;;9.27;;
83541;SDS011;73485;49.194;12.104;2024-03-06T06:20:20;26.88;;;11.65;;
83541;SDS011;73485;49.194;12.104;2024-03-06T06:22:47;26.60;;;10.40;;
83541;SDS011;73485;49.194;12.104;2024-03-06T06:25:15;22.83;;;11.40;;
83541;SDS011;73485;49.194;12.104;2024-03-06T06:27:43;24.30;;;9.70;;
83541;SDS011;73485;49.194;12.104;2024-03-06T06:30:11;27.63;;;10.63;;
83541;SDS011;73485;49.194;12.104;2024-03-06T06:32:39;26.58;;;10.40;;
83541;SDS011;73485;49.194;12.104;2024-03-06T06:35:09;24.85;;;11.07;;
83541;SDS011;73485;49.194;12.104;2024-03-06T06:37:39;23.55;;;9.45;;
83541;SDS011;73485;49.194;12.104;2024-03-06T06:40:07;24.92;;;10.95;;
83541;SDS011;73485;49.194;12.104;2024-03-06T06:42:36;26.15;;;10.40;;
83541;SDS011;73485;49.194;12.104;2024-03-06T06:45:05;24.75;;;9.95;;
83541;SDS011;73485;49.194;12.104;2024-03-06T06:47:33;24.73;;;9.32;;
83541;SDS011;73485;49.194;12.104;2024-03-06T06:50:01;21.33;;;9.85;;
83541;SDS011;73485;49.194;12.104;2024-03-06T06:52:32;21.48;;;9.07;;
83541;SDS011;73485;49.194;12.104;2024-03-06T06:55:02;24.73;;;9.95;;
83541;SDS011;73485;49.194;12.104;2024-03-06T06:57:30;26.30;;;10.32;;
83541;SDS011;73485;49.194;12.104;2024-03-06T07:00:00;27.73;;;11.25;;
83541;SDS011;73485;49.194;12.104;2024-03-06T07:02:29;31.75;;;10.43;;
83541;SDS011;73485;49.194;12.104;2024-03-06T07:04:57;26.38;;;10.65;;
83541;SDS011;73485;49.194;12.104;2024-03-06T07:07:25;25.65;;;10.00;;
83541;SDS011;73485;49.194;12.104;2024-03-06T07:09:52;25.40;;;11.57;;
83541;SDS011;73485;49.194;12.104;2024-03-06T07:12:21;24.75;;;10.25;;
83541;SDS011;73485;49.194;12.104;2024-03-06T07:14:49;20.73;;;10.35;;
83541;SDS011;73485;49.194;12.104;2024-03-06T07:17:17;24.40;;;10.98;;
83541;SDS011;73485;49.194;12.104;2024-03-06T07:19:44;27.13;;;11.80;;
83541;SDS011;73485;49.194;12.104;2024-03-06T07:22:12;28.55;;;11.23;;
83541;SDS011;73485;49.194;12.104;2024-03-06T07:24:40;26.65;;;11.63;;
83541;SDS011;73485;49.194;12.104;2024-03-06T07:27:10;29.00;;;10.90;;
83541;SDS011;73485;49.194;12.104;2024-03-06T07:29:39;20.20;;;9.60;;
83541;SDS011;73485;49.194;12.104;2024-03-06T07:32:07;24.45;;;10.48;;
83541;SDS011;73485;49.194;12.104;2024-03-06T07:34:34;26.40;;;13.20;;
83541;SDS011;73485;49.194;12.104;2024-03-06T07:37:02;23.20;;;11.05;;
83541;SDS011;73485;49.194;12.104;2024-03-06T07:39:31;26.35;;;10.48;;
83541;SDS011;73485;49.194;12.104;2024-03-06T07:42:01;30.40;;;10.18;;
83541;SDS011;73485;49.194;12.104;2024-03-06T07:44:29;29.35;;;11.68;;
83541;SDS011;73485;49.194;12.104;2024-03-06T07:46:58;33.15;;;13.65;;
83541;SDS011;73485;49.194;12.104;2024-03-06T07:49:25;26.55;;;12.70;;
83541;SDS011;73485;49.194;12.104;2024-03-06T07:51:53;28.17;;;10.80;;
83541;SDS011;73485;49.194;12.104;2024-03-06T07:54:21;24.25;;;10.38;;
83541;SDS011;73485;49.194;12.104;2024-03-06T07:56:48;28.05;;;10.68;;
83541;SDS011;73485;49.194;12.104;2024-03-06T07:59:16;33.20;;;12.23;;
83541;SDS011;73485;49.194;12.104;2024-03-06T08:01:44;28.38;;;12.05;;
83541;SDS011;73485;49.194;12.104;2024-03-06T08:04:13;31.88;;;10.77;;
83541;SDS011;73485;49.194;12.104;2024-03-06T08:06:41;30.40;;;12.55;;
83541;SDS011;73485;49.194;12.104;2024-03-06T08:09:09;24.98;;;11.30;;
83541;SDS011;73485;49.194;12.104;2024-03-06T08:11:37;26.05;;;10.15;;
83541;SDS011;73485;49.194;12.104;2024-03-06T08:14:05;25.92;;;10.30;;
83541;SDS011;73485;49.194;12.104;2024-03-06T08:16:33;23.98;;;9.77;;
83541;SDS011;73485;49.194;12.104;2024-03-06T08:19:02;29.23;;;10.40;;
83541;SDS011;73485;49.194;12.104;2024-03-06T08:21:31;30.77;;;11.68;;
83541;SDS011;73485;49.194;12.104;2024-03-06T08:23:59;26.30;;;11.45;;
83541;SDS011;73485;49.194;12.104;2024-03-06T08:26:27;25.90;;;10.93;;
83541;SDS011;73485;49.194;12.104;2024-03-06T08:28:55;24.80;;;10.98;;
83541;SDS011;73485;49.194;12.104;2024-03-06T08:31:22;25.85;;;11.15;;
83541;SDS011;73485;49.194;12.104;2024-03-06T08:33:51;21.98;;;9.30;;
83541;SDS011;73485;49.194;12.104;2024-03-06T08:36:19;25.98;;;10.98;;
83541;SDS011;73485;49.194;12.104;2024-03-06T08:38:48;26.00;;;11.40;;
83541;SDS011;73485;49.194;12.104;2024-03-06T08:41:17;23.77;;;10.50;;
83541;SDS011;73485;49.194;12.104;2024-03-06T08:43:46;22.80;;;9.43;;
83541;SDS011;73485;49.194;12.104;2024-03-06T08:46:14;24.98;;;11.52;;
83541;SDS011;73485;49.194;12.104;2024-03-06T08:48:42;26.75;;;10.93;;
83541;SDS011;73485;49.194;12.104;2024-03-06T08:51:09;22.23;;;10.85;;
83541;SDS011;73485;49.194;12.104;2024-03-06T08:53:37;26.25;;;10.70;;
83541;SDS011;73485;49.194;12.104;2024-03-06T08:56:07;29.83;;;12.13;;
83541;SDS011;73485;49.194;12.104;2024-03-06T08:58:34;27.80;;;13.02;;
83541;SDS011;73485;49.194;12.104;2024-03-06T09:01:02;25.10;;;11.25;;
83541;SDS011;73485;49.194;12.104;2024-03-06T09:03:31;22.33;;;11.20;;
83541;SDS011;73485;49.194;12.104;2024-03-06T09:05:59;26.25;;;11.18;;
83541;SDS011;73485;49.194;12.104;2024-03-06T09:08:27;25.42;;;11.40;;
83541;SDS011;73485;49.194;12.104;2024-03-06T09:10:55;24.40;;;10.27;;
83541;SDS011;73485;49.194;12.104;2024-03-06T09:13:26;23.65;;;12.82;;
83541;SDS011;73485;49.194;12.104;2024-03-06T09:15:54;25.05;;;11.27;;
83541;SDS011;73485;49.194;12.104;2024-03-06T09:18:22;25.20;;;10.48;;
83541;SDS011;73485;49.194;12.104;2024-03-06T09:20:49;27.70;;;12.95;;
83541;SDS011;73485;49.194;12.104;2024-03-06T09:23:17;23.58;;;11.32;;
83541;SDS011;73485;49.194;12.104;2024-03-06T09:25:45;28.38;;;12.77;;
83541;SDS011;73485;49.194;12.104;2024-03-06T09:28:14;22.63;;;10.10;;
83541;SDS011;73485;49.194;12.104;2024-03-06T09:30:43;26.13;;;11.52;;
83541;SDS011;73485;49.194;12.104;2024-03-06T09:33:11;26.35;;;10.93;;
83541;SDS011;73485;49.194;12.104;2024-03-06T09:35:39;24.08;;;11.38;;
83541;SDS011;73485;49.194;12.104;2024-03-06T09:38:12;25.02;;;11.20;;
83541;SDS011;73485;49.194;12.104;2024-03-06T09:40:44;23.85;;;10.20;;
83541;SDS011;73485;49.194;12.104;2024-03-06T09:43:12;25.77;;;10.88;;
83541;SDS011;73485;49.194;12.104;2024-03-06T09:45:40;24.95;;;10.63;;
83541;SDS011;73485;49.194;12.104;2024-03-06T09:48:11;28.48;;;11.73;;
83541;SDS011;73485;49.194;12.104;2024-03-06T09:50:38;27.83;;;10.85;;
83541;SDS011;73485;49.194;12.104;2024-03-06T09:53:12;25.52;;;11.52;;
83541;SDS011;73485;49.194;12.104;2024-03-06T09:55:41;26.23;;;10.20;;
83541;SDS011;73485;49.194;12.104;2024-03-06T09:58:10;27.33;;;12.38;;
83541;SDS011;73485;49.194;12.104;2024-03-06T10:00:38;25.85;;;11.25;;
83541;SDS011;73485;49.194;12.104;2024-03-06T10:03:06;24.95;;;10.07;;
83541;SDS011;73485;49.194;12.104;2024-03-06T10:05:36;23.35;;;11.25;;
83541;SDS011;73485;49.194;12.104;2024-03-06T10:08:04;26.65;;;10.48;;
83541;SDS011;73485;49.194;12.104;2024-03-06T10:10:32;20.52;;;10.65;;
83541;SDS011;73485;49.194;12.104;2024-03-06T10:13:00;23.85;;;11.90;;
83541;SDS011;73485;49.194;12.104;2024-03-06T10:15:28;20.75;;;9.15;;
83541;SDS011;73485;49.194;12.104;2024-03-06T10:18:11;20.88;;;10.77;;
83541;SDS011;73485;49.194;12.104;2024-03-06T10:20:41;24.35;;;10.73;;
83541;SDS011;73485;49.194;12.104;2024-03-06T10:23:11;22.80;;;8.98;;
83541;SDS011;73485;49.194;12.104;2024-03-06T10:25:38;25.05;;;9.48;;
83541;SDS011;73485;49.194;12.104;2024-03-06T10:28:06;19.50;;;9.43;;
83541;SDS011;73485;49.194;12.104;2024-03-06T10:30:35;19.95;;;9.35;;
83541;SDS011;73485;49.194;12.104;2024-03-06T10:33:04;18.45;;;8.90;;
83541;SDS011;73485;49.194;12.104;2024-03-06T10:35:32;18.98;;;8.27;;
83541;SDS011;73485;49.194;12.104;2024-03-06T10:38:02;24.92;;;10.80;;
83541;SDS011;73485;49.194;12.104;2024-03-06T10:40:30;22.17;;;9.73;;
83541;SDS011;73485;49.194;12.104;2024-03-06T10:42:59;20.27;;;9.85;;
83541;SDS011;73485;49.194;12.104;2024-03-06T10:45:30;21.90;;;9.98;;
83541;SDS011;73485;49.194;12.104;2024-03-06T10:48:02;22.45;;;10.48;;
83541;SDS011;73485;49.194;12.104;2024-03-06T10:52:59;22.98;;;9.57;;
83541;SDS011;73485;49.194;12.104;2024-03-06T10:55:28;27.17;;;10.90;;
83541;SDS011;73485;49.194;12.104;2024-03-06T10:58:00;23.00;;;10.40;;
83541;SDS011;73485;49.194;12.104;2024-03-06T11:00:28;23.13;;;10.65;;
83541;SDS011;73485;49.194;12.104;2024-03-06T11:02:55;21.25;;;10.25;;
83541;SDS011;73485;49.194;12.104;2024-03-06T11:05:25;26.95;;;9.75;;
83541;SDS011;73485;49.194;12.104;2024-03-06T11:07:52;21.67;;;9.45;;
83541;SDS011;73485;49.194;12.104;2024-03-06T11:10:32;21.20;;;11.32;;
83541;SDS011;73485;49.194;12.104;2024-03-06T11:13:00;18.15;;;9.27;;
83541;SDS011;73485;49.194;12.104;2024-03-06T11:15:29;20.63;;;9.82;;
83541;SDS011;73485;49.194;12.104;2024-03-06T11:17:56;22.17;;;9.73;;
83541;SDS011;73485;49.194;12.104;2024-03-06T11:20:28;20.63;;;9.73;;
83541;SDS011;73485;49.194;12.104;2024-03-06T11:26:02;21.08;;;9.65;;
83541;SDS011;73485;49.194;12.104;2024-03-06T11:28:31;25.55;;;10.23;;
83541;SDS011;73485;49.194;12.104;2024-03-06T11:31:00;21.27;;;9.98;;
83541;SDS011;73485;49.194;12.104;2024-03-06T11:33:35;23.67;;;10.07;;
83541;SDS011;73485;49.194;12.104;2024-03-06T11:38:46;20.67;;;8.68;;
83541;SDS011;73485;49.194;12.104;2024-03-06T11:41:16;22.05;;;8.70;;
83541;SDS011;73485;49.194;12.104;2024-03-06T11:43:44;16.17;;;7.47;;
83541;SDS011;73485;49.194;12.104;2024-03-06T11:46:12;23.30;;;10.30;;
83541;SDS011;73485;49.194;12.104;2024-03-06T11:48:43;19.10;;;9.57;;
83541;SDS011;73485;49.194;12.104;2024-03-06T11:51:19;24.50;;;11.73;;
83541;SDS011;73485;49.194;12.104;2024-03-06T11:53:49;19.10;;;9.35;;
83541;SDS011;73485;49.194;12.104;2024-03-06T11:56:18;21.70;;;9.93;;
83541;SDS011;73485;49.194;12.104;2024-03-06T11:58:46;21.60;;;8.93;;
83541;SDS011;73485;49.194;12.104;2024-03-06T12:01:15;23.85;;;11.05;;
83541;SDS011;73485;49.194;12.104;2024-03-06T12:03:45;24.10;;;10.88;;
83541;SDS011;73485;49.194;12.104;2024-03-06T12:06:14;24.25;;;10.93;;
83541;SDS011;73485;49.194;12.104;2024-03-06T12:08:43;21.67;;;10.48;;
83541;SDS011;73485;49.194;12.104;2024-03-06T12:11:11;19.75;;;11.50;;
83541;SDS011;73485;49.194;12.104;2024-03-06T12:13:41;30.15;;;12.57;;
83541;SDS011;73485;49.194;12.104;2024-03-06T12:16:09;22.90;;;11.32;;
83541;SDS011;73485;49.194;12.104;2024-03-06T12:18:36;23.55;;;11.75;;
83541;SDS011;73485;49.194;12.104;2024-03-06T12:21:04;21.88;;;9.07;;
83541;SDS011;73485;49.194;12.104;2024-03-06T12:23:32;18.85;;;9.30;;
83541;SDS011;73485;49.194;12.104;2024-03-06T12:26:03;18.30;;;9.23;;
83541;SDS011;73485;49.194;12.104;2024-03-06T12:28:32;19.90;;;8.88;;
83541;SDS011;73485;49.194;12.104;2024-03-06T12:31:03;18.80;;;8.73;;
83541;SDS011;73485;49.194;12.104;2024-03-06T12:33:31;25.88;;;10.88;;
83541;SDS011;73485;49.194;12.104;2024-03-06T12:36:01;20.00;;;10.77;;
83541;SDS011;73485;49.194;12.104;2024-03-06T12:38:29;21.35;;;9.90;;
83541;SDS011;73485;49.194;12.104;2024-03-06T12:40:57;22.02;;;10.13;;
83541;SDS011;73485;49.194;12.104;2024-03-06T12:43:25;18.42;;;9.32;;
83541;SDS011;73485;49.194;12.104;2024-03-06T12:45:54;20.30;;;8.60;;
83541;SDS011;73485;49.194;12.104;2024-03-06T12:48:26;18.02;;;9.63;;
83541;SDS011;73485;49.194;12.104;2024-03-06T12:50:56;20.48;;;8.82;;
83541;SDS011;73485;49.194;12.104;2024-03-06T12:53:32;18.83;;;8.95;;
83541;SDS011;73485;49.194;12.104;2024-03-06T12:56:01;19.92;;;9.27;;
83541;SDS011;73485;49.194;12.104;2024-03-06T12:58:30;19.85;;;9.60;;
83541;SDS011;73485;49.194;12.104;2024-03-06T13:00:58;25.08;;;9.43;;
83541;SDS011;73485;49.194;12.104;2024-03-06T13:03:27;19.48;;;9.57;;
83541;SDS011;73485;49.194;12.104;2024-03-06T13:05:55;20.55;;;9.57;;
83541;SDS011;73485;49.194;12.104;2024-03-06T13:08:23;17.23;;;8.15;;
83541;SDS011;73485;49.194;12.104;2024-03-06T13:10:51;20.08;;;8.85;;
83541;SDS011;73485;49.194;12.104;2024-03-06T13:13:19;17.95;;;8.98;;
83541;SDS011;73485;49.194;12.104;2024-03-06T13:15:46;23.70;;;10.50;;
83541;SDS011;73485;49.194;12.104;2024-03-06T13:18:15;16.52;;;8.55;;
83541;SDS011;73485;49.194;12.104;2024-03-06T13:20:44;21.25;;;10.30;;
83541;SDS011;73485;49.194;12.104;2024-03-06T13:23:12;24.63;;;10.38;;
83541;SDS011;73485;49.194;12.104;2024-03-06T13:25:40;20.27;;;9.90;;
83541;SDS011;73485;49.194;12.104;2024-03-06T13:28:08;17.30;;;9.15;;
83541;SDS011;73485;49.194;12.104;2024-03-06T13:30:36;21.05;;;9.07;;
83541;SDS011;73485;49.194;12.104;2024-03-06T13:33:05;20.70;;;9.27;;
83541;SDS011;73485;49.194;12.104;2024-03-06T13:35:34;19.05;;;9.68;;
83541;SDS011;73485;49.194;12.104;2024-03-06T13:38:03;18.02;;;8.60;;
83541;SDS011;73485;49.194;12.104;2024-03-06T13:40:30;22.25;;;9.25;;
83541;SDS011;73485;49.194;12.104;2024-03-06T13:42:58;18.20;;;9.15;;
83541;SDS011;73485;49.194;12.104;2024-03-06T13:45:26;15.55;;;9.35;;
83541;SDS011;73485;49.194;12.104;2024-03-06T13:47:54;23.42;;;9.63;;
83541;SDS011;73485;49.194;12.104;2024-03-06T13:50:22;20.17;;;9.75;;
83541;SDS011;73485;49.194;12.104;2024-03-06T13:52:52;19.95;;;8.93;;
83541;SDS011;73485;49.194;12.104;2024-03-06T13:55:21;21.88;;;10.85;;
83541;SDS011;73485;49.194;12.104;2024-03-06T13:57:49;21.30;;;9.75;;
83541;SDS011;73485;49.194;12.104;2024-03-06T14:00:17;25.13;;;10.20;;
83541;SDS011;73485;49.194;12.104;2024-03-06T14:02:45;18.83;;;8.82;;
83541;SDS011;73485;49.194;12.104;2024-03-06T14:05:14;19.98;;;10.15;;
83541;SDS011;73485;49.194;12.104;2024-03-06T14:07:42;20.85;;;9.68;;
83541;SDS011;73485;49.194;12.104;2024-03-06T14:10:10;21.98;;;10.40;;
83541;SDS011;73485;49.194;12.104;2024-03-06T14:12:39;23.95;;;9.23;;
83541;SDS011;73485;49.194;12.104;2024-03-06T14:15:07;17.63;;;8.77;;
83541;SDS011;73485;49.194;12.104;2024-03-06T14:17:39;22.67;;;10.40;;
83541;SDS011;73485;49.194;12.104;2024-03-06T14:20:07;24.10;;;10.60;;
83541;SDS011;73485;49.194;12.104;2024-03-06T14:22:38;19.92;;;9.63;;
83541;SDS011;73485;49.194;12.104;2024-03-06T14:25:07;18.30;;;8.93;;
83541;SDS011;73485;49.194;12.104;2024-03-06T14:27:35;16.08;;;9.45;;
83541;SDS011;73485;49.194;12.104;2024-03-06T14:30:04;21.92;;;11.07;;
83541;SDS011;73485;49.194;12.104;2024-03-06T14:32:34;20.73;;;10.40;;
83541;SDS011;73485;49.194;12.104;2024-03-06T14:35:02;21.40;;;11.20;;
83541;SDS011;73485;49.194;12.104;2024-03-06T14:37:30;21.50;;;11.30;;
83541;SDS011;73485;49.194;12.104;2024-03-06T14:39:57;19.50;;;9.82;;
83541;SDS011;73485;49.194;12.104;2024-03-06T14:42:31;27.80;;;10.35;;